Time;durP1;ratioP1;P1;durP2;ratioP2;P2;SDS_P1;SDS_P2;PMS_P1;PMS_P2;Temp;Humidity;BMP_temperature;BMP_pressure;BME280_temperature;BME280_humidity;BME280_pressure;Samples;Min_cycle;Max_cycle;Signal;HPM_P1;HPM_P2
2021/11/22 00:00:51;;;;;;;10.55;7.20;;;6.90;1.00;;;;;;5067991;28;20228;-79
2021/11/22 00:03:20;;;;;;;10.38;5.65;;;6.90;1.00;;;;;;5048591;28;20241;-79
2021/11/22 00:05:47;;;;;;;7.20;5.05;;;6.90;1.00;;;;;;5066635;28;20593;-79
2021/11/22 00:08:14;;;;;;;6.35;5.60;;;7.00;1.00;;;;;;5063129;28;20225;-80
2021/11/22 00:10:41;;;;;;;9.98;5.10;;;7.00;1.00;;;;;;5065027;28;20224;-79
2021/11/22 00:13:10;;;;;;;11.00;4.93;;;7.10;1.00;;;;;;5063400;28;21273;-79
2021/11/22 00:15:37;;;;;;;6.30;5.20;;;7.10;1.00;;;;;;5060072;28;20222;-80
2021/11/22 00:18:04;;;;;;;8.27;4.20;;;7.10;1.00;;;;;;5064249;28;21059;-80
2021/11/22 00:20:31;;;;;;;7.63;4.63;;;7.10;1.00;;;;;;5062870;28;20225;-80
2021/11/22 00:23:01;;;;;;;6.95;4.57;;;7.20;1.00;;;;;;5063101;28;20258;-80
2021/11/22 00:25:28;;;;;;;6.28;4.65;;;7.20;1.00;;;;;;5062760;28;21143;-80
2021/11/22 00:27:55;;;;;;;9.25;5.00;;;7.20;1.00;;;;;;5061345;28;20264;-80
2021/11/22 00:30:23;;;;;;;5.97;4.60;;;7.20;1.00;;;;;;5064632;28;21875;-80
2021/11/22 00:32:50;;;;;;;6.72;4.38;;;7.20;1.00;;;;;;5060545;28;20320;-79
2021/11/22 00:35:17;;;;;;;6.15;4.07;;;7.20;1.00;;;;;;5044338;28;20272;-80
2021/11/22 00:37:50;;;;;;;6.18;4.25;;;7.20;1.00;;;;;;5064821;28;21505;-80
2021/11/22 00:40:17;;;;;;;7.85;4.78;;;7.20;1.00;;;;;;5069127;28;20883;-80
2021/11/22 00:42:46;;;;;;;6.20;4.15;;;7.20;1.00;;;;;;5052071;28;20236;-80
2021/11/22 00:45:13;;;;;;;6.45;3.90;;;7.20;1.00;;;;;;5066467;28;20780;-80
2021/11/22 00:47:41;;;;;;;7.97;4.25;;;7.20;1.00;;;;;;5057172;28;20232;-79
2021/11/22 00:50:10;;;;;;;8.40;4.82;;;7.20;1.00;;;;;;5064768;28;20217;-80
2021/11/22 00:52:37;;;;;;;5.32;3.70;;;7.20;1.00;;;;;;5058058;28;20234;-80
2021/11/22 00:55:06;;;;;;;7.88;4.60;;;7.20;1.00;;;;;;5067285;28;20226;-79
2021/11/22 00:57:34;;;;;;;6.15;4.72;;;7.20;1.00;;;;;;5063071;28;21096;-80
2021/11/22 01:00:01;;;;;;;7.47;4.07;;;7.10;1.00;;;;;;5063915;28;21272;-78
2021/11/22 01:02:28;;;;;;;5.82;4.75;;;7.00;1.00;;;;;;5032804;28;20572;-80
2021/11/22 01:04:56;;;;;;;8.20;4.10;;;6.90;1.00;;;;;;5069144;28;20247;-80
2021/11/22 01:07:23;;;;;;;7.65;3.88;;;6.80;1.00;;;;;;5071779;28;20221;-79
2021/11/22 01:09:51;;;;;;;8.20;4.38;;;6.70;1.00;;;;;;5066245;28;20966;-79
2021/11/22 01:12:18;;;;;;;5.80;3.80;;;6.50;1.00;;;;;;5064178;28;20220;-79
2021/11/22 01:14:45;;;;;;;6.55;4.35;;;6.50;1.00;;;;;;5062864;28;24054;-79
2021/11/22 01:17:14;;;;;;;8.23;3.95;;;6.30;1.00;;;;;;5070535;28;20243;-79
2021/11/22 01:19:41;;;;;;;5.60;3.75;;;6.30;1.00;;;;;;5062385;28;20216;-79
2021/11/22 01:22:09;;;;;;;5.38;3.85;;;6.30;1.00;;;;;;5066321;28;20228;-79
2021/11/22 01:24:36;;;;;;;6.72;4.20;;;6.30;1.00;;;;;;5063986;28;20236;-79
2021/11/22 01:27:03;;;;;;;6.95;3.88;;;6.20;1.00;;;;;;5063690;28;20226;-79
2021/11/22 01:29:30;;;;;;;4.45;3.38;;;6.20;1.00;;;;;;5060621;28;20217;-79
2021/11/22 01:31:57;;;;;;;5.07;4.40;;;6.20;1.00;;;;;;5064048;28;20235;-81
2021/11/22 01:34:24;;;;;;;5.63;3.22;;;6.10;1.00;;;;;;5065493;28;20228;-81
2021/11/22 01:36:51;;;;;;;8.35;4.20;;;6.10;1.00;;;;;;5059534;28;20216;-78
2021/11/22 01:39:19;;;;;;;6.20;3.55;;;6.10;1.00;;;;;;5063223;28;20228;-79
2021/11/22 01:41:46;;;;;;;5.40;4.10;;;6.20;1.00;;;;;;5068567;28;20229;-81
2021/11/22 01:44:14;;;;;;;6.60;3.90;;;6.20;1.00;;;;;;5066038;28;20974;-79
2021/11/22 01:46:41;;;;;;;4.13;3.17;;;6.30;1.00;;;;;;5067027;28;20224;-79
2021/11/22 01:49:08;;;;;;;5.35;3.20;;;6.30;1.00;;;;;;5066088;28;20224;-78
2021/11/22 01:51:35;;;;;;;4.50;3.60;;;6.30;1.00;;;;;;5065505;28;21185;-78
2021/11/22 01:54:02;;;;;;;4.65;3.50;;;6.30;1.00;;;;;;5045828;28;20279;-79
2021/11/22 01:56:30;;;;;;;5.68;3.60;;;6.20;1.00;;;;;;5056136;28;20279;-79
2021/11/22 01:58:57;;;;;;;5.13;2.78;;;6.20;1.00;;;;;;5071007;28;20231;-80
2021/11/22 02:01:24;;;;;;;5.45;3.10;;;6.20;1.00;;;;;;5063171;28;20224;-80
2021/11/22 02:03:51;;;;;;;6.00;3.15;;;6.10;1.00;;;;;;5063447;28;20251;-80
2021/11/22 02:06:19;;;;;;;4.00;2.58;;;6.10;1.00;;;;;;5066817;28;20216;-80
2021/11/22 02:08:46;;;;;;;4.47;2.67;;;6.10;1.00;;;;;;5067493;28;21660;-79
2021/11/22 02:11:14;;;;;;;5.53;3.00;;;6.10;1.00;;;;;;5067333;28;20223;-79
2021/11/22 02:13:44;;;;;;;4.10;3.05;;;6.00;1.00;;;;;;5064566;28;20339;-79
2021/11/22 02:16:11;;;;;;;4.82;3.08;;;6.00;1.00;;;;;;5064500;28;20981;-79
2021/11/22 02:18:38;;;;;;;3.55;2.35;;;6.10;1.00;;;;;;5062501;28;20227;-79
2021/11/22 02:21:06;;;;;;;5.00;3.03;;;6.10;1.00;;;;;;5065028;28;20225;-78
2021/11/22 02:23:34;;;;;;;3.65;2.50;;;6.10;1.00;;;;;;5055614;28;20239;-79
2021/11/22 02:26:02;;;;;;;3.95;2.80;;;6.10;1.00;;;;;;5062414;28;20247;-78
2021/11/22 02:28:29;;;;;;;4.25;2.70;;;6.10;1.00;;;;;;5065984;28;20727;-79
2021/11/22 02:30:56;;;;;;;3.50;2.42;;;6.10;1.00;;;;;;5063751;28;20252;-80
2021/11/22 02:33:27;;;;;;;3.80;2.40;;;6.10;1.00;;;;;;5065302;28;20228;-79
2021/11/22 02:35:57;;;;;;;3.50;2.40;;;6.20;1.00;;;;;;5060066;28;20233;-79
2021/11/22 02:38:28;;;;;;;3.00;2.10;;;6.30;1.00;;;;;;5055223;28;20359;-79
2021/11/22 02:40:55;;;;;;;3.00;1.85;;;6.30;1.00;;;;;;5066967;28;20231;-79
2021/11/22 02:43:22;;;;;;;3.55;2.40;;;6.30;1.00;;;;;;5067414;28;21007;-79
2021/11/22 02:45:49;;;;;;;4.43;1.92;;;6.40;1.00;;;;;;5067413;28;20352;-80
2021/11/22 02:48:16;;;;;;;3.60;1.60;;;6.40;1.00;;;;;;5063622;28;20234;-79
2021/11/22 02:50:45;;;;;;;3.78;2.28;;;6.50;1.00;;;;;;5065309;28;20704;-80
2021/11/22 02:53:14;;;;;;;3.15;1.60;;;6.50;1.00;;;;;;5062305;28;20368;-78
2021/11/22 02:55:44;;;;;;;2.63;2.15;;;6.50;1.00;;;;;;5061235;28;20216;-79
2021/11/22 02:58:11;;;;;;;3.50;1.80;;;6.50;1.00;;;;;;5062248;28;20217;-80
2021/11/22 03:00:39;;;;;;;4.00;1.75;;;6.50;1.00;;;;;;5062534;28;20216;-79
2021/11/22 03:03:06;;;;;;;2.85;1.80;;;6.60;1.00;;;;;;5060738;28;20775;-80
2021/11/22 03:05:33;;;;;;;4.93;2.10;;;6.60;1.00;;;;;;5040976;28;20233;-79
2021/11/22 03:08:00;;;;;;;4.47;1.92;;;6.60;1.00;;;;;;5061104;28;20231;-78
2021/11/22 03:10:29;;;;;;;2.65;1.80;;;6.60;1.00;;;;;;5059243;28;20235;-80
2021/11/22 03:12:58;;;;;;;4.05;1.67;;;6.60;1.00;;;;;;5045242;28;20232;-80
2021/11/22 03:15:27;;;;;;;6.00;2.00;;;6.60;1.00;;;;;;5065393;28;20229;-80
2021/11/22 03:17:54;;;;;;;3.40;1.40;;;6.70;1.00;;;;;;5067861;28;20278;-80
2021/11/22 03:20:22;;;;;;;3.30;1.67;;;6.60;1.00;;;;;;5063366;28;20221;-79
2021/11/22 03:22:54;;;;;;;2.60;1.30;;;6.60;1.00;;;;;;5072642;28;20236;-80
2021/11/22 03:25:21;;;;;;;3.58;1.70;;;6.50;1.00;;;;;;5085380;28;21535;-78
2021/11/22 03:27:48;;;;;;;2.22;1.40;;;6.50;1.00;;;;;;5081576;28;20232;-79
2021/11/22 03:30:17;;;;;;;2.85;1.55;;;6.50;1.00;;;;;;5079635;28;20227;-79
2021/11/22 03:32:44;;;;;;;2.50;1.48;;;6.60;1.00;;;;;;5082263;28;20243;-78
2021/11/22 03:35:13;;;;;;;2.90;1.80;;;6.50;1.00;;;;;;5079649;28;20235;-79
2021/11/22 03:37:40;;;;;;;3.08;1.55;;;6.50;1.00;;;;;;5076049;28;20212;-79
2021/11/22 03:40:09;;;;;;;2.90;1.25;;;6.50;1.00;;;;;;5074640;28;21429;-80
2021/11/22 03:42:51;;;;;;;3.72;1.50;;;6.50;1.00;;;;;;5068749;28;20780;-79
2021/11/22 03:45:19;;;;;;;2.72;1.42;;;6.50;1.00;;;;;;5072446;28;20265;-79
2021/11/22 03:47:46;;;;;;;6.78;3.47;;;6.40;1.00;;;;;;5066278;28;20227;-79
2021/11/22 03:50:14;;;;;;;5.68;2.90;;;6.30;1.00;;;;;;5068826;28;20220;-80
2021/11/22 03:52:42;;;;;;;3.10;1.95;;;6.30;1.00;;;;;;5070043;28;20311;-80
2021/11/22 03:55:10;;;;;;;3.58;1.70;;;6.30;1.00;;;;;;5070379;28;20311;-80
2021/11/22 03:57:37;;;;;;;3.90;2.47;;;6.30;1.00;;;;;;5068159;28;20217;-79
2021/11/22 04:00:05;;;;;;;2.90;1.77;;;6.30;1.00;;;;;;5051097;28;20220;-79
2021/11/22 04:02:37;;;;;;;2.40;1.65;;;6.40;1.00;;;;;;5067812;28;20405;-79
2021/11/22 04:05:05;;;;;;;4.43;2.10;;;6.40;1.00;;;;;;5069169;28;20336;-80
2021/11/22 04:07:32;;;;;;;2.92;1.75;;;6.40;1.00;;;;;;5070275;28;20683;-80
2021/11/22 04:09:59;;;;;;;3.35;1.83;;;6.40;1.00;;;;;;5067183;28;20231;-78
2021/11/22 04:12:26;;;;;;;3.25;1.70;;;6.30;1.00;;;;;;5070929;28;20975;-79
2021/11/22 04:14:53;;;;;;;3.72;1.90;;;6.30;1.00;;;;;;5055803;28;20231;-79
2021/11/22 04:17:20;;;;;;;3.67;1.42;;;6.30;1.00;;;;;;5049840;28;20618;-78
2021/11/22 04:19:49;;;;;;;2.80;1.60;;;6.30;1.00;;;;;;5065902;28;20225;-79
2021/11/22 04:22:16;;;;;;;5.18;2.30;;;6.40;1.00;;;;;;5065422;28;20224;-78
2021/11/22 04:24:43;;;;;;;2.90;1.80;;;6.50;1.00;;;;;;5070982;28;20259;-79
2021/11/22 04:27:12;;;;;;;4.75;1.70;;;6.50;1.00;;;;;;5065403;28;24644;-80
2021/11/22 04:29:40;;;;;;;2.67;1.42;;;6.50;1.00;;;;;;5070101;28;20510;-80
2021/11/22 04:32:08;;;;;;;4.72;1.65;;;6.60;1.00;;;;;;5065027;28;21036;-79
2021/11/22 04:34:37;;;;;;;4.25;1.67;;;6.60;1.00;;;;;;5066681;28;20236;-79
2021/11/22 04:37:06;;;;;;;5.55;1.63;;;6.60;1.00;;;;;;5066063;28;20228;-78
2021/11/22 04:39:34;;;;;;;2.22;1.05;;;6.60;1.00;;;;;;5068665;28;20248;-79
2021/11/22 04:42:03;;;;;;;3.13;1.25;;;6.60;1.00;;;;;;5066641;28;20217;-80
2021/11/22 04:44:30;;;;;;;2.58;1.25;;;6.70;1.00;;;;;;5055742;28;20232;-79
2021/11/22 04:47:01;;;;;;;3.75;2.08;;;6.70;1.00;;;;;;5069467;28;20445;-80
2021/11/22 04:49:28;;;;;;;5.68;1.30;;;6.80;1.00;;;;;;5069044;28;20308;-79
2021/11/22 04:51:55;;;;;;;2.20;1.52;;;6.80;1.00;;;;;;5067000;28;20274;-79
2021/11/22 04:54:25;;;;;;;2.05;1.40;;;6.80;1.00;;;;;;5058113;28;20225;-81
2021/11/22 04:56:52;;;;;;;1.80;1.00;;;6.80;1.00;;;;;;5062466;28;21083;-80
2021/11/22 04:59:20;;;;;;;4.20;1.20;;;6.70;1.00;;;;;;5070466;28;20225;-79
2021/11/22 05:01:48;;;;;;;3.85;1.58;;;6.70;1.00;;;;;;5046875;28;20319;-79
2021/11/22 05:04:15;;;;;;;3.08;1.85;;;6.60;1.00;;;;;;5050117;28;20224;-79
2021/11/22 05:06:42;;;;;;;3.58;2.13;;;6.60;1.00;;;;;;5064162;28;20311;-78
2021/11/22 05:09:09;;;;;;;5.07;1.92;;;6.50;1.00;;;;;;5068440;28;20295;-78
2021/11/22 05:11:38;;;;;;;5.13;2.40;;;6.50;1.00;;;;;;5083799;28;20686;-79
2021/11/22 05:14:05;;;;;;;6.25;2.55;;;6.60;1.00;;;;;;5067705;28;20224;-80
2021/11/22 05:16:32;;;;;;;6.25;3.47;;;6.60;1.00;;;;;;5066003;28;20398;-80
2021/11/22 05:18:59;;;;;;;3.80;3.35;;;6.50;1.00;;;;;;5071513;28;20325;-80
2021/11/22 05:21:26;;;;;;;3.72;1.60;;;6.50;1.00;;;;;;5064221;28;20247;-80
2021/11/22 05:23:55;;;;;;;4.90;2.50;;;6.40;1.00;;;;;;5064928;28;20324;-79
2021/11/22 05:26:22;;;;;;;4.68;2.90;;;6.30;1.00;;;;;;5065919;28;20240;-77
2021/11/22 05:28:50;;;;;;;7.05;6.10;;;6.20;1.00;;;;;;5066849;28;20232;-78
2021/11/22 05:31:17;;;;;;;3.08;1.70;;;6.10;1.00;;;;;;5066699;28;20225;-79
2021/11/22 05:33:44;;;;;;;3.55;1.55;;;5.90;1.00;;;;;;5072516;28;20227;-79
2021/11/22 05:36:11;;;;;;;4.00;1.58;;;5.90;1.00;;;;;;5069877;28;21441;-79
2021/11/22 05:38:38;;;;;;;2.45;1.60;;;5.80;1.00;;;;;;5069567;28;20255;-79
2021/11/22 05:41:05;;;;;;;4.57;1.95;;;5.70;1.00;;;;;;5069773;28;20219;-76
2021/11/22 05:43:32;;;;;;;3.78;1.58;;;5.70;1.00;;;;;;5064506;28;20225;-77
2021/11/22 05:46:01;;;;;;;8.05;1.75;;;5.60;1.00;;;;;;5069110;28;20286;-77
2021/11/22 05:48:28;;;;;;;3.10;1.92;;;5.50;1.00;;;;;;5060599;28;20231;-79
2021/11/22 05:50:56;;;;;;;2.72;1.90;;;5.50;1.00;;;;;;5070924;28;20278;-78
2021/11/22 05:53:24;;;;;;;3.20;2.00;;;5.40;1.00;;;;;;5069214;28;20220;-78
2021/11/22 05:55:52;;;;;;;3.83;2.35;;;5.40;1.00;;;;;;5069850;28;20224;-77
2021/11/22 05:58:21;;;;;;;3.72;1.35;;;5.40;1.00;;;;;;5068660;28;20728;-78
2021/11/22 06:00:48;;;;;;;3.97;1.40;;;5.40;1.00;;;;;;5076479;28;20220;-81
2021/11/22 06:03:17;;;;;;;5.00;2.47;;;5.30;1.00;;;;;;5069670;28;20229;-79
2021/11/22 06:05:44;;;;;;;6.10;3.22;;;5.30;1.00;;;;;;5069234;28;20236;-81
2021/11/22 06:08:16;;;;;;;3.25;1.42;;;5.20;1.00;;;;;;5072885;28;20232;-79
2021/11/22 06:10:44;;;;;;;5.80;2.42;;;5.20;1.00;;;;;;5070722;28;20220;-80
2021/11/22 06:13:11;;;;;;;4.95;2.33;;;5.10;1.00;;;;;;5071268;28;20291;-80
2021/11/22 06:15:38;;;;;;;3.95;1.83;;;5.10;1.00;;;;;;5068923;28;20248;-80
2021/11/22 06:18:05;;;;;;;3.97;2.05;;;5.00;1.00;;;;;;5071334;28;20225;-78
2021/11/22 06:20:34;;;;;;;2.05;1.30;;;5.00;1.00;;;;;;5078307;28;20224;-79
2021/11/22 06:23:01;;;;;;;5.95;2.40;;;5.00;1.00;;;;;;5070882;28;20215;-78
2021/11/22 06:25:29;;;;;;;3.22;1.55;;;4.90;1.00;;;;;;5065870;28;20239;-81
2021/11/22 06:27:56;;;;;;;2.47;1.40;;;4.90;1.00;;;;;;5067459;28;20216;-78
2021/11/22 06:30:24;;;;;;;4.15;2.00;;;4.80;1.00;;;;;;5068037;28;20233;-80
2021/11/22 06:32:53;;;;;;;3.20;1.85;;;4.80;1.00;;;;;;5073007;28;20225;-80
2021/11/22 06:35:20;;;;;;;3.10;1.70;;;4.80;1.00;;;;;;5075172;28;20310;-78
2021/11/22 06:37:51;;;;;;;2.58;1.50;;;4.70;1.00;;;;;;5072279;28;20648;-79
2021/11/22 06:40:19;;;;;;;5.88;2.22;;;4.70;1.00;;;;;;5051580;28;20228;-78
2021/11/22 06:42:46;;;;;;;6.63;3.00;;;4.70;1.00;;;;;;5068418;28;20355;-76
2021/11/22 06:45:14;;;;;;;4.97;2.08;;;4.70;1.00;;;;;;5071485;28;20228;-80
2021/11/22 06:47:41;;;;;;;5.20;1.70;;;4.70;1.00;;;;;;5064412;28;20231;-76
2021/11/22 06:50:09;;;;;;;3.40;1.85;;;4.70;1.00;;;;;;5070210;28;20220;-76
2021/11/22 06:52:36;;;;;;;2.78;1.70;;;4.70;1.00;;;;;;5075472;28;20260;-75
2021/11/22 06:55:06;;;;;;;4.80;2.10;;;4.60;1.00;;;;;;5067017;28;20224;-76
2021/11/22 06:57:33;;;;;;;4.55;2.35;;;4.60;1.00;;;;;;5070433;28;21009;-75
2021/11/22 07:00:00;;;;;;;3.22;1.77;;;4.60;1.00;;;;;;5068055;28;20246;-76
2021/11/22 07:02:27;;;;;;;4.30;2.40;;;4.60;1.00;;;;;;5071052;28;20220;-76
2021/11/22 07:04:55;;;;;;;7.50;2.42;;;4.60;1.00;;;;;;5067769;28;20676;-75
2021/11/22 07:07:22;;;;;;;4.90;1.98;;;4.50;1.00;;;;;;5068892;28;20252;-77
2021/11/22 07:09:49;;;;;;;4.88;2.55;;;4.50;1.00;;;;;;5066512;28;20228;-76
2021/11/22 07:12:18;;;;;;;42.72;28.25;;;4.50;1.00;;;;;;5068345;28;20262;-76
2021/11/22 07:14:45;;;;;;;5.85;3.47;;;4.50;1.00;;;;;;5065949;28;20216;-76
2021/11/22 07:17:14;;;;;;;6.53;3.58;;;4.50;1.00;;;;;;5067206;28;20255;-77
2021/11/22 07:19:41;;;;;;;6.93;2.55;;;4.50;1.00;;;;;;5066076;28;20224;-76
2021/11/22 07:22:11;;;;;;;3.40;2.40;;;4.50;1.00;;;;;;5069962;28;20239;-76
2021/11/22 07:24:41;;;;;;;5.10;2.20;;;4.50;1.00;;;;;;5068633;28;21227;-77
2021/11/22 07:27:10;;;;;;;5.20;2.80;;;4.50;1.00;;;;;;5064711;28;20479;-76
2021/11/22 07:29:38;;;;;;;3.85;1.48;;;4.50;1.00;;;;;;5065623;28;21051;-77
2021/11/22 07:32:06;;;;;;;4.95;2.97;;;4.50;1.00;;;;;;5068572;28;20224;-76
2021/11/22 07:34:33;;;;;;;4.30;2.30;;;4.50;1.00;;;;;;5068986;28;20221;-76
2021/11/22 07:37:00;;;;;;;5.20;2.35;;;4.50;1.00;;;;;;5070581;28;20311;-76
2021/11/22 07:39:27;;;;;;;2.53;1.67;;;4.60;1.00;;;;;;5071008;28;20228;-76
2021/11/22 07:41:56;;;;;;;8.13;2.03;;;4.70;1.00;;;;;;5053816;28;20228;-77
2021/11/22 07:44:25;;;;;;;6.15;1.83;;;4.70;1.00;;;;;;5067816;28;20217;-77
2021/11/22 07:46:53;;;;;;;5.05;2.10;;;4.70;1.00;;;;;;5070216;28;21014;-76
2021/11/22 07:49:20;;;;;;;5.30;2.15;;;4.80;1.00;;;;;;5066236;28;20263;-77
2021/11/22 07:51:47;;;;;;;4.80;2.38;;;4.90;1.00;;;;;;5069366;28;20221;-76
2021/11/22 07:54:15;;;;;;;3.47;1.83;;;5.10;1.00;;;;;;5065817;28;20228;-76
2021/11/22 07:56:43;;;;;;;5.38;2.17;;;5.20;1.00;;;;;;5071802;28;20227;-77
2021/11/22 07:59:11;;;;;;;7.85;3.20;;;5.30;1.00;;;;;;5067829;28;21096;-75
2021/11/22 08:01:39;;;;;;;6.60;2.33;;;5.30;1.00;;;;;;5067476;28;20275;-76
2021/11/22 08:04:12;;;;;;;3.63;1.80;;;5.30;1.00;;;;;;5066499;28;20271;-76
2021/11/22 08:06:41;;;;;;;5.80;2.22;;;5.40;1.00;;;;;;5065685;28;20773;-76
2021/11/22 08:09:13;;;;;;;5.32;1.90;;;5.60;1.00;;;;;;5068227;28;20250;-75
2021/11/22 08:12:03;;;;;;;4.10;1.63;;;5.60;1.00;;;;;;5049119;28;20239;-76
2021/11/22 08:14:30;;;;;;;5.72;2.85;;;5.60;1.00;;;;;;5068779;28;20229;-76
2021/11/22 08:16:57;;;;;;;5.70;2.42;;;5.90;1.00;;;;;;5068749;28;20223;-76
2021/11/22 08:19:26;;;;;;;5.63;1.55;;;6.00;1.00;;;;;;5061538;28;20251;-77
2021/11/22 08:21:53;;;;;;;2.03;1.23;;;6.10;1.00;;;;;;5064860;28;20233;-76
2021/11/22 08:24:24;;;;;;;3.33;1.50;;;6.10;1.00;;;;;;5073240;28;20228;-76
2021/11/22 08:26:51;;;;;;;5.30;2.40;;;6.00;1.00;;;;;;5066644;28;20239;-76
2021/11/22 08:29:18;;;;;;;6.50;2.40;;;6.00;1.00;;;;;;5067485;28;22615;-75
2021/11/22 08:31:46;;;;;;;6.50;2.00;;;6.10;1.00;;;;;;5069027;28;20230;-76
2021/11/22 08:34:13;;;;;;;8.88;2.03;;;6.40;1.00;;;;;;5069418;28;20220;-76
2021/11/22 08:36:41;;;;;;;2.88;1.88;;;6.50;1.00;;;;;;5066593;28;20770;-76
2021/11/22 08:39:08;;;;;;;3.00;1.60;;;6.40;1.00;;;;;;5057627;28;20393;-77
2021/11/22 08:41:35;;;;;;;6.22;1.42;;;6.40;1.00;;;;;;5071450;28;20313;-76
2021/11/22 08:44:02;;;;;;;5.57;3.10;;;6.60;1.00;;;;;;5047594;28;20231;-77
2021/11/22 08:46:29;;;;;;;5.68;1.77;;;6.90;1.00;;;;;;5070181;28;20241;-77
2021/11/22 08:48:56;;;;;;;7.03;2.28;;;7.00;1.00;;;;;;5066412;28;20220;-76
2021/11/22 08:51:26;;;;;;;6.38;1.80;;;7.10;1.00;;;;;;5067160;28;20236;-76
2021/11/22 08:53:55;;;;;;;4.65;1.30;;;7.10;1.00;;;;;;5064273;28;20224;-76
2021/11/22 08:56:21;;;;;;;6.60;1.70;;;7.20;1.00;;;;;;5068978;28;20312;-75
2021/11/22 08:58:48;;;;;;;3.25;1.80;;;7.20;1.00;;;;;;5068540;28;20212;-76
2021/11/22 09:01:15;;;;;;;7.10;1.38;;;7.10;1.00;;;;;;5070994;28;20680;-76
2021/11/22 09:03:43;;;;;;;11.77;8.13;;;7.10;1.00;;;;;;5068868;28;20266;-75
2021/11/22 09:06:11;;;;;;;4.45;2.10;;;7.00;1.00;;;;;;5067964;28;20236;-75
2021/11/22 09:08:38;;;;;;;4.93;2.15;;;7.10;1.00;;;;;;5052074;28;20235;-76
2021/11/22 09:11:06;;;;;;;5.20;1.55;;;7.10;1.00;;;;;;5065894;28;20213;-76
2021/11/22 09:13:33;;;;;;;9.75;2.20;;;7.10;1.00;;;;;;5070629;28;20220;-76
2021/11/22 09:16:00;;;;;;;6.57;2.22;;;7.30;1.00;;;;;;5065005;28;20289;-76
2021/11/22 09:18:27;;;;;;;2.70;1.50;;;7.40;1.00;;;;;;5072196;28;20236;-76
2021/11/22 09:20:54;;;;;;;5.15;1.45;;;7.50;1.00;;;;;;5068814;28;20718;-76
2021/11/22 09:23:21;;;;;;;4.43;1.33;;;7.60;1.00;;;;;;5068861;28;21592;-75
2021/11/22 09:25:49;;;;;;;12.77;5.43;;;7.70;1.00;;;;;;5066329;28;20235;-77
2021/11/22 09:28:17;;;;;;;6.60;2.20;;;7.70;1.00;;;;;;5068967;28;20235;-76
2021/11/22 09:30:44;;;;;;;4.90;2.83;;;7.90;1.00;;;;;;5070767;28;24505;-76
2021/11/22 09:33:11;;;;;;;7.82;2.00;;;8.10;1.00;;;;;;5065179;28;20236;-76
2021/11/22 09:35:39;;;;;;;2.55;1.67;;;8.70;1.00;;;;;;5071900;28;20260;-76
2021/11/22 09:38:06;;;;;;;3.97;1.30;;;8.90;1.00;;;;;;5068044;28;20243;-78
2021/11/22 09:40:35;;;;;;;3.38;1.27;;;9.00;1.00;;;;;;5070152;28;20236;-78
2021/11/22 09:43:02;;;;;;;2.45;1.20;;;9.20;1.00;;;;;;5063934;28;20233;-77
2021/11/22 09:45:31;;;;;;;4.93;2.17;;;9.50;1.00;;;;;;5068215;28;20240;-77
2021/11/22 09:48:01;;;;;;;2.90;1.20;;;9.90;1.00;;;;;;5068995;28;20929;-78
2021/11/22 09:50:30;;;;;;;5.45;1.40;;;10.60;1.00;;;;;;5063901;28;20231;-78
2021/11/22 09:52:57;;;;;;;3.97;1.20;;;10.80;1.00;;;;;;5067126;28;20270;-77
2021/11/22 09:55:29;;;;;;;6.60;1.93;;;10.90;1.00;;;;;;5065182;28;20459;-77
2021/11/22 09:57:56;;;;;;;4.73;1.40;;;10.60;1.00;;;;;;5078057;28;20463;-78
2021/11/22 10:00:23;;;;;;;5.72;2.00;;;10.20;1.00;;;;;;5050246;28;20452;-77
2021/11/22 10:02:56;;;;;;;5.20;1.93;;;10.00;1.00;;;;;;5069872;28;20282;-78
2021/11/22 10:05:26;;;;;;;5.50;1.67;;;10.00;1.00;;;;;;5048531;28;21222;-78
2021/11/22 10:08:06;;;;;;;3.73;1.50;;;10.30;1.00;;;;;;5069887;28;21050;-77
2021/11/22 10:10:39;;;;;;;5.97;1.55;;;10.80;1.00;;;;;;5067129;28;20506;-78
2021/11/22 10:13:28;;;;;;;1.93;1.13;;;11.00;1.00;;;;;;5067856;28;20235;-78
2021/11/22 10:15:57;;;;;;;7.43;1.80;;;10.80;1.00;;;;;;5067029;28;20506;-78
2021/11/22 10:18:27;;;;;;;9.93;3.17;;;10.90;1.00;;;;;;5073771;28;20978;-78
2021/11/22 10:20:55;;;;;;;3.00;2.25;;;11.00;1.00;;;;;;5073372;28;20221;-78
2021/11/22 10:23:29;;;;;;;11.17;3.53;;;10.80;1.00;;;;;;5071021;28;20230;-83
2021/11/22 10:25:58;;;;;;;3.93;2.07;;;10.90;1.00;;;;;;5075380;28;20456;-78
2021/11/22 10:28:26;;;;;;;3.50;1.60;;;12.20;1.00;;;;;;5059023;28;20456;-78
2021/11/22 10:30:55;;;;;;;5.93;2.80;;;13.20;1.00;;;;;;5066396;28;21284;-75
2021/11/22 10:33:26;;;;;;;2.60;1.70;;;13.40;1.00;;;;;;5063726;28;20451;-78
2021/11/22 10:35:55;;;;;;;3.23;1.20;;;13.40;1.00;;;;;;5067659;28;20453;-77
2021/11/22 10:38:24;;;;;;;4.73;1.83;;;13.30;1.00;;;;;;5065305;28;21330;-79
2021/11/22 10:40:54;;;;;;;4.23;1.20;;;12.70;1.00;;;;;;5071265;28;20414;-77
2021/11/22 10:43:21;;;;;;;1.93;1.20;;;12.30;1.00;;;;;;5070594;28;20716;-78
2021/11/22 10:45:51;;;;;;;9.87;2.57;;;12.00;1.00;;;;;;5069055;28;20467;-80
2021/11/22 10:48:22;;;;;;;4.60;1.80;;;11.80;1.00;;;;;;5067380;28;20450;-79
2021/11/22 10:51:02;;;;;;;5.90;1.30;;;12.20;1.00;;;;;;5070689;28;20436;-77
2021/11/22 10:53:32;;;;;;;7.93;2.10;;;12.50;1.00;;;;;;5067923;28;20471;-78
2021/11/22 10:56:00;;;;;;;3.10;1.20;;;12.40;1.00;;;;;;5066611;28;20458;-79
2021/11/22 10:58:37;;;;;;;6.00;4.07;;;12.20;1.00;;;;;;5070926;28;20437;-78
2021/11/22 11:01:23;;;;;;;4.23;1.63;;;12.10;1.00;;;;;;5051895;28;20404;-80
2021/11/22 11:03:56;;;;;;;3.87;1.20;;;12.00;1.00;;;;;;5069095;28;20489;-80
2021/11/22 11:06:37;;;;;;;5.57;1.50;;;12.20;1.00;;;;;;5069964;28;20454;-80
2021/11/22 11:09:06;;;;;;;6.33;1.70;;;12.70;1.00;;;;;;5072966;28;20482;-79
2021/11/22 11:11:33;;;;;;;4.10;1.57;;;13.00;1.00;;;;;;5071774;28;20428;-78
2021/11/22 11:14:05;;;;;;;3.90;1.90;;;13.40;1.00;;;;;;5076129;28;20488;-81
2021/11/22 11:16:33;;;;;;;3.23;1.33;;;12.90;1.00;;;;;;5077419;28;20518;-79
2021/11/22 11:19:03;;;;;;;6.63;1.90;;;12.90;1.00;;;;;;5075322;28;20459;-79
2021/11/22 11:21:32;;;;;;;2.57;1.43;;;12.80;1.00;;;;;;5077924;28;20462;-78
2021/11/22 11:24:03;;;;;;;5.70;1.70;;;12.40;1.00;;;;;;5063843;28;20472;-79
2021/11/22 11:26:31;;;;;;;12.03;2.37;;;12.20;1.00;;;;;;5078311;28;20458;-79
2021/11/22 11:28:59;;;;;;;7.83;1.93;;;12.10;1.00;;;;;;5070474;28;20430;-77
2021/11/22 11:31:26;;;;;;;7.37;1.80;;;11.80;1.00;;;;;;5069679;28;20415;-79
2021/11/22 11:33:54;;;;;;;2.63;1.30;;;11.40;1.00;;;;;;5056070;28;20935;-81
2021/11/22 11:36:46;;;;;;;11.10;2.80;;;11.00;1.00;;;;;;5071170;28;20441;-79
2021/11/22 11:39:44;;;;;;;6.23;1.40;;;10.90;1.00;;;;;;5074003;28;21103;-79
2021/11/22 11:42:25;;;;;;;6.33;1.40;;;10.90;1.00;;;;;;5067434;28;20466;-80
2021/11/22 11:45:02;;;;;;;2.30;1.10;;;10.70;1.00;;;;;;5075938;28;21430;-81
2021/11/22 11:47:34;;;;;;;3.00;1.27;;;10.30;1.00;;;;;;5082645;28;20467;-82
2021/11/22 11:50:19;;;;;;;5.07;2.37;;;10.10;1.00;;;;;;5074019;28;20524;-82
2021/11/22 11:52:53;;;;;;;6.60;2.57;;;10.00;1.00;;;;;;5076972;28;20462;-82
2021/11/22 11:55:22;;;;;;;2.70;0.70;;;10.00;1.00;;;;;;5080753;28;20446;-80
2021/11/22 11:57:51;;;;;;;2.23;1.20;;;9.80;1.00;;;;;;5073823;28;20446;-81
2021/11/22 12:00:24;;;;;;;4.72;1.00;;;9.60;1.00;;;;;;5072153;28;20470;-80
2021/11/22 12:03:00;;;;;;;3.47;1.25;;;9.30;1.00;;;;;;5074148;28;21041;-82
2021/11/22 12:05:44;;;;;;;1.80;0.80;;;9.10;1.00;;;;;;5071731;28;20242;-81
2021/11/22 12:08:21;;;;;;;1.77;0.80;;;8.80;1.00;;;;;;5074453;28;20481;-82
2021/11/22 12:10:50;;;;;;;2.60;0.80;;;8.60;1.00;;;;;;5076298;28;20276;-80
2021/11/22 12:13:17;;;;;;;3.38;1.25;;;8.40;1.00;;;;;;5069631;28;20280;-85
2021/11/22 12:15:47;;;;;;;2.75;1.10;;;8.30;1.00;;;;;;5075153;28;20225;-83
2021/11/22 12:18:25;;;;;;;4.85;2.42;;;8.10;1.00;;;;;;5069368;28;20229;-82
2021/11/22 12:21:14;;;;;;;6.30;2.67;;;8.00;1.00;;;;;;5075309;28;21278;-83
2021/11/22 12:23:47;;;;;;;2.80;1.13;;;8.20;1.00;;;;;;5072742;28;20978;-81
2021/11/22 12:26:26;;;;;;;7.65;2.20;;;8.50;1.00;;;;;;5076332;28;20247;-82
2021/11/22 12:28:54;;;;;;;7.63;3.00;;;8.60;1.00;;;;;;5071685;28;20289;-82
2021/11/22 12:31:44;;;;;;;3.35;1.10;;;8.80;1.00;;;;;;5084616;28;20538;-82
2021/11/22 12:34:13;;;;;;;10.13;2.13;;;8.90;1.00;;;;;;5071117;28;20220;-82
2021/11/22 12:36:47;;;;;;;2.40;1.33;;;8.70;1.00;;;;;;5070094;28;20220;-83
2021/11/22 12:39:21;;;;;;;3.72;1.33;;;8.50;1.00;;;;;;5072934;28;20233;-83
2021/11/22 12:41:51;;;;;;;3.25;1.33;;;8.30;1.00;;;;;;5077131;28;20230;-81
2021/11/22 12:44:20;;;;;;;11.80;8.30;;;8.00;1.00;;;;;;5069278;28;24788;-84
2021/11/22 12:46:51;;;;;;;7.13;2.20;;;7.80;1.00;;;;;;5067482;28;20224;-82
2021/11/22 12:49:44;;;;;;;4.55;1.50;;;7.60;1.00;;;;;;5070996;28;20225;-81
2021/11/22 12:52:21;;;;;;;1.60;1.00;;;7.40;1.00;;;;;;5069905;28;20236;-80
2021/11/22 12:54:55;;;;;;;3.80;1.38;;;8.30;1.00;;;;;;5065626;28;20303;-80
2021/11/22 12:57:26;;;;;;;2.90;1.07;;;9.50;1.00;;;;;;5064104;28;20394;-80
2021/11/22 13:00:26;;;;;;;4.23;0.97;;;12.30;1.00;;;;;;5069920;28;20489;-80
2021/11/22 13:03:03;;;;;;;4.13;1.77;;;14.70;1.00;;;;;;5069812;28;20569;-80
2021/11/22 13:06:01;;;;;;;11.47;2.10;;;15.30;1.00;;;;;;5069627;28;21025;-79
2021/11/22 13:08:51;;;;;;;2.60;1.20;;;14.90;1.00;;;;;;5066404;28;20463;-79
2021/11/22 13:11:28;;;;;;;2.80;1.00;;;14.40;1.00;;;;;;5048344;28;20486;-79
2021/11/22 13:14:01;;;;;;;4.57;1.37;;;14.10;1.00;;;;;;5068336;28;20503;-80
2021/11/22 13:16:29;;;;;;;5.67;1.70;;;13.60;1.00;;;;;;5069951;28;20509;-79